Ormond Beach, FL (32174)

11:31 PM EST on November 25, 2014 (GMT -0500)
The Trails | Change Station
CLOSE
Current Station
Personal Weather Station
Location: Ormond Beach, FL
Elevation: 23 ft
Nearby Weather Stations

Elev 23 ft 29.28 °N, 81.10 °W | Updated 57 seconds ago

Rain
Rain
69.4 °F
Feels Like 69.4 °F
N
1.0
Wind Variable Wind from WSW
Gusts 11.0 mph

Today
High -- | Low -- °F
--% Chance of Precip.
Yesterday
High -- | Low -- °F
Precip. -- in
6:56 AM 5:26 PM
Waxing Crescent, 16% visible
Pressure 29.90 in
Visibility 1.0 miles
Clouds Mostly Cloudy 700 ft
Mostly Cloudy 7500 ft
Overcast 9500 ft
Dew Point 69 °F
Humidity 99%
Rainfall 3.16 in
Snow Depth Not available.
UV 1.6 out of 12
Pollen .50 out of 12
Air Quality Not available.
Flu Activity Not available.
SPECI KDAB 260426Z 15009G15KT 1SM -RA BR BKN007 BKN075 OVC095 21/21 A2990 RMK AO2 TSE25 TS DSIPTD P0006 T02110206

More Conditions Fewer Conditions

Pressure 29.90 in
Visibility 1.0 miles
Clouds Mostly Cloudy 700 ft
Mostly Cloudy 7500 ft
Overcast 9500 ft
Dew Point 69 °F
Humidity 99%
Rainfall 3.16 in
Snow Depth Not available.
UV 1.6 out of 12
Pollen .50 out of 12
Air Quality Not available.
Flu Activity Not available.
SPECI KDAB 260426Z 15009G15KT 1SM -RA BR BKN007 BKN075 OVC095 21/21 A2990 RMK AO2 TSE25 TS DSIPTD P0006 T02110206

More Conditions Fewer Conditions

Nowcast | as of 9:50 PM EST on November 25, 2014

A large area of heavy rain on the West Coast of Florida from Tampa south will move northeast at 25 to 30 mph and begin to impact areas from Leesburg to Orlando and south by midnight. Repeated rounds of heavy rain falling on saturated ground from northwest Osceola County to Volusia and North Brevard counties will result in flooding through the early overnight hours. A Flood Watch remains in effect Wednesday morning Additional details...including graphics are available online at: http://www.Srh.NOAA.Gov/mlb/blog.Php

×

10-Day Weather Forecast

Almanac

Astronomy

Nov. 25, 2014 Rise Set
Actual Time
Civil Twilight
Nautical Twilight
Astronomical Twilight
Moon
Length of Visible Light
Length of Day
Tomorrow will be .
, % of the Moon is Illuminated

Today's Extremes

State Highs State Lows

Community

WunderPhotos

Upload Photos

1,773,684 photos uploaded!

WunderBlogs® & News

Nearby

Air Quality

  Air Quality AQ Index Pollutant
Not available.

Snow Depth

Station Depth Elevation

Earthquake Activity

City Distance Mag. Time & Date
Minimum magnitude displayed is 2.5.

Coastal Water Temperatures

Place Temperature

Nearby Weather Stations